createdAt,value
2022-08-27T00:01:47.708Z,6.13
2022-08-27T00:03:50.016Z,5.82
2022-08-27T00:05:51.637Z,4.30
2022-08-27T00:07:55.381Z,4.05
2022-08-27T00:09:59.932Z,3.78
2022-08-27T00:12:02.252Z,5.18
2022-08-27T00:14:06.149Z,4.35
2022-08-27T00:16:12.468Z,3.95
2022-08-27T00:18:14.542Z,3.88
2022-08-27T00:20:19.976Z,4.43
2022-08-27T00:22:24.540Z,3.70
2022-08-27T00:24:28.856Z,3.80
2022-08-27T00:26:30.917Z,5.05
2022-08-27T00:28:34.212Z,5.93
2022-08-27T00:30:35.854Z,4.80
2022-08-27T00:32:38.797Z,5.07
2022-08-27T00:34:40.772Z,4.93
2022-08-27T00:36:42.649Z,4.70
2022-08-27T00:38:44.427Z,5.75
2022-08-27T00:40:46.789Z,3.72
2022-08-27T00:42:48.947Z,4.65
2022-08-27T00:44:50.640Z,6.22
2022-08-27T00:46:56.649Z,5.18
2022-08-27T00:49:07.928Z,4.20
2022-08-27T00:51:09.714Z,4.35
2022-08-27T00:53:14.712Z,3.90
2022-08-27T00:55:24.895Z,5.38
2022-08-27T00:57:27.639Z,3.78
2022-08-27T00:59:31.028Z,5.75
2022-08-27T01:01:35.900Z,4.43
2022-08-27T01:03:38.570Z,5.80
2022-08-27T01:05:43.672Z,5.18
2022-08-27T01:07:48.614Z,4.05
2022-08-27T01:09:52.357Z,4.72
2022-08-27T01:11:57.445Z,4.95
2022-08-27T01:14:01.099Z,5.13
2022-08-27T01:16:05.315Z,6.60
2022-08-27T01:18:08.895Z,4.63
2022-08-27T01:20:25.473Z,4.80
2022-08-27T01:22:35.183Z,4.50
2022-08-27T01:24:50.004Z,5.18
2022-08-27T01:26:51.785Z,4.97
2022-08-27T01:28:53.474Z,5.10
2022-08-27T01:30:55.026Z,4.38
2022-08-27T01:32:57.880Z,5.63
2022-08-27T01:35:00.919Z,6.03
2022-08-27T01:37:02.609Z,4.95
2022-08-27T01:39:04.457Z,5.65
2022-08-27T01:41:08.473Z,5.18
2022-08-27T01:43:10.327Z,6.47
2022-08-27T01:45:18.074Z,5.20
2022-08-27T01:47:22.234Z,5.72
2022-08-27T01:49:23.857Z,5.70
2022-08-27T01:51:25.437Z,5.35
2022-08-27T01:53:27.282Z,4.85
2022-08-27T01:55:28.730Z,5.45
2022-08-27T01:57:30.920Z,5.53
2022-08-27T01:59:39.362Z,5.93
2022-08-27T02:01:41.722Z,7.20
2022-08-27T02:03:44.771Z,5.65
2022-08-27T02:05:48.162Z,5.78
2022-08-27T02:07:50.577Z,6.65
2022-08-27T02:09:54.629Z,5.50
2022-08-27T02:11:56.293Z,6.68
2022-08-27T02:13:58.066Z,6.97
2022-08-27T02:16:00.196Z,7.13
2022-08-27T02:18:03.172Z,6.53
2022-08-27T02:20:07.133Z,5.43
2022-08-27T02:22:08.636Z,5.22
2022-08-27T02:24:10.323Z,7.95
2022-08-27T02:26:13.695Z,6.32
2022-08-27T02:28:19.938Z,5.65
2022-08-27T02:30:24.233Z,5.60
2022-08-27T02:32:32.019Z,6.53
2022-08-27T02:34:34.481Z,5.57
2022-08-27T02:36:38.791Z,7.55
2022-08-27T02:38:40.965Z,6.38
2022-08-27T02:40:46.848Z,5.53
2022-08-27T02:42:49.002Z,6.10
2022-08-27T02:44:50.820Z,5.70
2022-08-27T02:46:53.790Z,6.68
2022-08-27T02:48:56.120Z,7.80
2022-08-27T02:50:57.675Z,6.55
2022-08-27T02:53:02.035Z,5.35
2022-08-27T02:55:05.537Z,8.52
2022-08-27T02:57:07.911Z,5.45
2022-08-27T02:59:09.594Z,5.35
2022-08-27T03:01:13.768Z,5.93
2022-08-27T03:03:15.683Z,5.45
2022-08-27T03:05:18.952Z,6.80
2022-08-27T03:07:23.443Z,8.10
2022-08-27T03:09:25.458Z,6.70
2022-08-27T03:11:27.487Z,6.28
2022-08-27T03:13:31.702Z,7.13
2022-08-27T03:15:33.459Z,6.20
2022-08-27T03:17:54.398Z,7.00
2022-08-27T03:19:56.003Z,5.85
2022-08-27T03:21:57.547Z,8.52
2022-08-27T03:24:09.507Z,7.13
2022-08-27T03:26:13.485Z,7.72
2022-08-27T03:28:22.896Z,5.90
2022-08-27T03:30:25.329Z,6.38
2022-08-27T03:32:27.557Z,7.07
2022-08-27T03:34:29.141Z,5.63
2022-08-27T03:36:31.566Z,5.70
2022-08-27T03:38:34.435Z,5.75
2022-08-27T03:40:36.508Z,8.05
2022-08-27T03:42:38.994Z,6.32
2022-08-27T03:44:40.758Z,5.40
2022-08-27T03:46:42.696Z,7.05
2022-08-27T03:48:44.333Z,6.05
2022-08-27T03:50:48.595Z,5.53
2022-08-27T03:52:50.138Z,6.68
2022-08-27T03:54:51.730Z,5.93
2022-08-27T03:56:53.222Z,6.25
2022-08-27T03:58:55.071Z,7.50
2022-08-27T04:00:57.023Z,6.75
2022-08-27T04:02:58.718Z,6.93
2022-08-27T04:05:00.446Z,8.00
2022-08-27T04:07:02.160Z,6.35
2022-08-27T04:09:05.134Z,6.10
2022-08-27T04:11:07.810Z,6.80
2022-08-27T04:13:09.468Z,5.63
2022-08-27T04:15:13.067Z,7.18
2022-08-27T04:17:14.811Z,5.60
2022-08-27T04:19:16.371Z,6.00
2022-08-27T04:21:18.029Z,5.10
2022-08-27T04:23:20.385Z,5.60
2022-08-27T04:25:22.029Z,6.25
2022-08-27T04:27:25.677Z,6.95
2022-08-27T04:29:27.416Z,7.60
2022-08-27T04:31:29.495Z,6.32
2022-08-27T04:33:33.998Z,4.82
2022-08-27T04:35:35.870Z,6.22
2022-08-27T04:37:37.611Z,8.57
2022-08-27T04:39:39.401Z,6.72
2022-08-27T04:41:48.592Z,5.85
2022-08-27T04:43:59.129Z,8.25
2022-08-27T04:46:00.896Z,6.65
2022-08-27T04:48:02.929Z,7.47
2022-08-27T04:50:07.617Z,6.15
2022-08-27T04:52:10.081Z,6.65
2022-08-27T04:54:11.852Z,7.70
2022-08-27T04:56:15.706Z,7.40
2022-08-27T04:58:20.613Z,7.00
2022-08-27T05:00:22.802Z,7.95
2022-08-27T05:02:27.290Z,5.68
2022-08-27T05:04:30.374Z,6.40
2022-08-27T05:06:33.052Z,7.30
2022-08-27T05:08:37.370Z,9.30
2022-08-27T05:10:43.757Z,7.03
2022-08-27T05:12:45.419Z,6.05
2022-08-27T05:14:46.979Z,5.65
2022-08-27T05:16:48.477Z,6.45
2022-08-27T05:18:52.119Z,7.25
2022-08-27T05:20:54.309Z,7.57
2022-08-27T05:22:56.782Z,5.97
2022-08-27T05:24:59.482Z,6.00
2022-08-27T05:27:00.979Z,10.05
2022-08-27T05:29:05.423Z,6.57
2022-08-27T05:31:10.671Z,6.90
2022-08-27T05:33:17.364Z,8.90
2022-08-27T05:35:19.745Z,6.78
2022-08-27T05:37:22.124Z,8.18
2022-08-27T05:39:23.863Z,5.88
2022-08-27T05:41:34.078Z,7.45
2022-08-27T05:43:38.145Z,6.65
2022-08-27T05:45:45.925Z,8.90
2022-08-27T05:47:48.019Z,7.22
2022-08-27T05:49:53.536Z,6.22
2022-08-27T05:52:00.953Z,6.85
2022-08-27T05:54:14.764Z,7.25
2022-08-27T05:56:21.544Z,8.18
2022-08-27T05:58:41.353Z,8.02
2022-08-27T06:01:04.204Z,8.45
2022-08-27T06:03:09.880Z,8.40
2022-08-27T06:05:11.618Z,7.30
2022-08-27T06:07:16.695Z,8.07
2022-08-27T06:09:23.024Z,7.82
2022-08-27T06:11:24.705Z,8.90
2022-08-27T06:13:26.247Z,7.80
2022-08-27T06:15:27.801Z,7.70
2022-08-27T06:17:29.648Z,10.02
2022-08-27T06:19:31.281Z,10.00
2022-08-27T06:21:33.560Z,8.60
2022-08-27T06:23:38.363Z,8.77
2022-08-27T06:25:40.883Z,8.13
2022-08-27T06:27:42.454Z,9.38
2022-08-27T06:29:44.725Z,7.43
2022-08-27T06:31:46.409Z,7.63
2022-08-27T06:33:50.735Z,8.20
2022-08-27T06:35:52.504Z,11.27
2022-08-27T06:37:54.207Z,7.85
2022-08-27T06:39:58.762Z,7.35
2022-08-27T06:42:00.412Z,7.22
2022-08-27T06:44:08.561Z,7.57
2022-08-27T06:46:13.516Z,6.95
2022-08-27T06:48:16.446Z,9.75
2022-08-27T06:50:22.322Z,8.43
2022-08-27T06:52:27.219Z,8.32
2022-08-27T06:54:28.762Z,9.25
2022-08-27T06:56:33.807Z,10.25
2022-08-27T06:58:36.094Z,9.27
2022-08-27T07:00:38.346Z,8.10
2022-08-27T07:02:40.017Z,8.82
2022-08-27T07:04:41.607Z,7.45
2022-08-27T07:06:43.337Z,8.25
2022-08-27T07:08:53.725Z,8.15
2022-08-27T07:10:57.687Z,7.85
2022-08-27T07:12:59.747Z,7.05
2022-08-27T07:15:01.509Z,7.35
2022-08-27T07:17:03.831Z,8.93
2022-08-27T07:19:08.666Z,8.18
2022-08-27T07:21:12.914Z,8.27
2022-08-27T07:23:16.978Z,7.78
2022-08-27T07:25:20.345Z,8.05
2022-08-27T07:27:22.542Z,8.93
2022-08-27T07:29:24.413Z,9.23
2022-08-27T07:31:26.264Z,7.13
2022-08-27T07:33:27.900Z,7.90
2022-08-27T07:35:29.626Z,9.10
2022-08-27T07:37:35.137Z,11.02
2022-08-27T07:39:37.123Z,8.32
2022-08-27T07:41:58.891Z,7.63
2022-08-27T07:44:19.678Z,6.90
2022-08-27T07:46:22.339Z,7.82
2022-08-27T07:48:25.238Z,7.43
2022-08-27T07:50:26.885Z,6.95
2022-08-27T07:52:28.716Z,6.97
2022-08-27T07:54:30.435Z,6.80
2022-08-27T07:56:32.134Z,8.07
2022-08-27T07:58:34.694Z,7.00
2022-08-27T08:00:36.735Z,6.32
2022-08-27T08:02:44.959Z,6.25
2022-08-27T08:04:47.287Z,6.05
2022-08-27T08:06:49.251Z,7.07
2022-08-27T08:08:50.850Z,6.57
2022-08-27T08:10:52.414Z,9.50
2022-08-27T08:12:54.037Z,6.47
2022-08-27T08:14:58.573Z,5.68
2022-08-27T08:17:01.529Z,5.80
2022-08-27T08:19:03.320Z,6.70
2022-08-27T08:21:08.346Z,6.97
2022-08-27T08:23:10.578Z,5.55
2022-08-27T08:25:14.038Z,5.82
2022-08-27T08:27:15.870Z,4.90
2022-08-27T08:29:18.331Z,5.00
2022-08-27T08:31:21.045Z,4.93
2022-08-27T08:33:23.172Z,5.82
2022-08-27T08:35:25.101Z,5.22
2022-08-27T08:37:27.445Z,5.28
2022-08-27T08:39:32.328Z,4.72
2022-08-27T08:42:06.205Z,4.60
2022-08-27T08:44:40.370Z,4.65
2022-08-27T08:47:14.431Z,4.50
2022-08-27T08:49:52.104Z,4.07
2022-08-27T08:51:57.294Z,4.05
2022-08-27T08:54:04.747Z,4.20
2022-08-27T08:56:12.496Z,4.40
2022-08-27T08:58:35.373Z,3.88
2022-08-27T09:00:40.453Z,4.15
2022-08-27T09:02:50.626Z,3.80
2022-08-27T09:04:52.186Z,3.95
2022-08-27T09:07:10.873Z,3.47
2022-08-27T09:09:47.384Z,3.88
2022-08-27T09:12:03.969Z,4.18
2022-08-27T09:14:34.303Z,3.38
2022-08-27T09:16:38.604Z,3.10
2022-08-27T09:18:42.084Z,2.88
2022-08-27T09:20:49.370Z,2.90
2022-08-27T09:23:01.999Z,3.00
2022-08-27T09:25:20.265Z,3.28
2022-08-27T09:27:23.837Z,3.20
2022-08-27T09:29:28.718Z,3.05
2022-08-27T09:31:30.214Z,3.22
2022-08-27T09:33:54.815Z,5.18
2022-08-27T09:36:23.545Z,3.00
2022-08-27T09:38:35.150Z,3.13
2022-08-27T09:40:48.957Z,3.03
2022-08-27T09:42:56.282Z,3.38
2022-08-27T09:45:05.697Z,3.92
2022-08-27T09:47:18.445Z,3.22
2022-08-27T09:49:20.289Z,3.60
2022-08-27T09:51:27.212Z,3.60
2022-08-27T09:53:31.726Z,3.50
2022-08-27T09:55:39.585Z,3.60
2022-08-27T09:57:42.511Z,3.97
2022-08-27T09:59:53.786Z,4.18
2022-08-27T10:01:58.755Z,4.35
2022-08-27T10:04:15.434Z,3.45
2022-08-27T10:06:28.470Z,4.80
2022-08-27T10:08:47.123Z,4.63
2022-08-27T10:11:15.051Z,4.80
2022-08-27T10:13:37.756Z,4.57
2022-08-27T10:16:21.155Z,5.00
2022-08-27T10:19:00.847Z,5.47
2022-08-27T10:21:12.254Z,5.60
2022-08-27T10:24:11.204Z,7.45
2022-08-27T10:26:20.620Z,6.45
2022-08-27T10:28:54.139Z,5.93
2022-08-27T10:31:08.386Z,5.97
2022-08-27T10:33:32.430Z,5.35
2022-08-27T10:35:55.029Z,6.47
2022-08-27T10:38:13.886Z,5.72
2022-08-27T10:40:40.483Z,6.63
2022-08-27T10:42:57.535Z,8.18
2022-08-27T10:45:42.815Z,5.45
2022-08-27T10:47:55.392Z,5.95
2022-08-27T10:49:59.781Z,7.00
2022-08-27T10:52:19.695Z,5.65
2022-08-27T10:54:40.210Z,5.10
2022-08-27T10:57:26.176Z,5.22
2022-08-27T10:59:26.734Z,4.32
2022-08-27T11:02:00.216Z,4.43
2022-08-27T11:04:08.533Z,3.70
2022-08-27T11:06:36.273Z,4.22
2022-08-27T11:08:55.615Z,5.28
2022-08-27T11:11:35.095Z,4.30
2022-08-27T11:13:41.240Z,4.05
2022-08-27T11:15:47.704Z,5.05
2022-08-27T11:18:05.844Z,3.97
2022-08-27T11:20:16.155Z,4.72
2022-08-27T11:22:30.132Z,4.07
2022-08-27T11:24:39.423Z,3.95
2022-08-27T11:26:42.854Z,4.13
2022-08-27T11:28:47.300Z,4.20
2022-08-27T11:31:03.931Z,3.47
2022-08-27T11:33:20.558Z,3.88
2022-08-27T11:35:34.702Z,4.03
2022-08-27T11:37:45.370Z,4.88
2022-08-27T11:40:14.233Z,4.82
2022-08-27T11:42:42.134Z,4.03
2022-08-27T11:44:48.704Z,4.25
2022-08-27T11:46:56.314Z,4.38
2022-08-27T11:49:04.465Z,4.30
2022-08-27T11:51:32.470Z,6.35
2022-08-27T11:53:47.688Z,4.20
2022-08-27T11:55:55.152Z,4.50
2022-08-27T11:58:30.576Z,4.28
2022-08-27T12:00:42.395Z,3.88
2022-08-27T12:02:45.024Z,6.40
2022-08-27T12:04:47.362Z,5.70
2022-08-27T12:07:01.630Z,6.28
2022-08-27T12:09:15.883Z,5.18
2022-08-27T12:11:33.004Z,4.45
2022-08-27T12:13:42.739Z,4.57
2022-08-27T12:15:59.609Z,4.30
2022-08-27T12:18:26.512Z,3.75
2022-08-27T12:20:47.576Z,5.53
2022-08-27T12:23:17.397Z,5.93
2022-08-27T12:25:25.653Z,6.35
2022-08-27T12:27:37.143Z,4.65
2022-08-27T12:29:48.014Z,4.05
2022-08-27T12:31:54.466Z,3.55
2022-08-27T12:33:58.596Z,3.53
2022-08-27T12:36:15.454Z,3.92
2022-08-27T12:38:42.653Z,4.93
2022-08-27T12:40:52.426Z,4.43
2022-08-27T12:43:10.734Z,3.38
2022-08-27T12:45:20.742Z,3.95
2022-08-27T12:47:23.401Z,5.10
2022-08-27T12:49:38.863Z,6.32
2022-08-27T12:51:45.214Z,4.18
2022-08-27T12:53:50.378Z,4.60
2022-08-27T12:56:11.534Z,5.07
2022-08-27T12:58:21.924Z,5.20
2022-08-27T13:00:26.864Z,3.53
2022-08-27T13:02:50.919Z,4.13
2022-08-27T13:04:53.959Z,4.88
2022-08-27T13:06:55.875Z,4.28
2022-08-27T13:08:59.998Z,7.38
2022-08-27T13:11:22.263Z,5.43
2022-08-27T13:13:25.392Z,5.53
2022-08-27T13:15:27.257Z,6.57
2022-08-27T13:17:29.119Z,5.55
2022-08-27T13:19:34.411Z,6.82
2022-08-27T13:21:36.279Z,6.40
2022-08-27T13:23:45.548Z,5.38
2022-08-27T13:26:13.908Z,5.45
2022-08-27T13:28:19.936Z,6.43
2022-08-27T13:30:36.059Z,4.65
2022-08-27T13:32:39.046Z,5.07
2022-08-27T13:34:41.651Z,6.75
2022-08-27T13:37:18.801Z,4.10
2022-08-27T13:39:20.425Z,3.88
2022-08-27T13:41:32.136Z,2.88
2022-08-27T13:43:42.444Z,3.85
2022-08-27T13:45:49.885Z,5.57
2022-08-27T13:47:53.598Z,7.40
2022-08-27T13:50:04.733Z,5.07
2022-08-27T13:52:27.773Z,8.50
2022-08-27T13:54:30.864Z,7.22
2022-08-27T13:56:36.664Z,8.18
2022-08-27T13:58:38.262Z,6.57
2022-08-27T14:00:41.081Z,4.25
2022-08-27T14:02:43.430Z,3.47
2022-08-27T14:05:11.292Z,3.22
2022-08-27T14:07:20.318Z,2.65
2022-08-27T14:09:29.037Z,4.45
2022-08-27T14:11:31.564Z,2.45
2022-08-27T14:13:46.983Z,4.28
2022-08-27T14:15:57.468Z,4.13
2022-08-27T14:18:00.212Z,4.32
2022-08-27T14:20:04.885Z,4.93
2022-08-27T14:22:07.871Z,4.40
2022-08-27T14:24:09.623Z,3.92
2022-08-27T14:26:11.226Z,4.68
2022-08-27T14:28:12.976Z,3.63
2022-08-27T14:30:18.441Z,4.40
2022-08-27T14:32:21.080Z,6.03
2022-08-27T14:34:22.623Z,3.78
2022-08-27T14:36:27.338Z,4.47
2022-08-27T14:38:32.121Z,5.70
2022-08-27T14:40:34.317Z,5.15
2022-08-27T14:42:36.971Z,5.25
2022-08-27T14:44:39.064Z,3.80
2022-08-27T14:46:41.418Z,3.58
2022-08-27T14:48:51.457Z,7.57
2022-08-27T14:50:53.826Z,3.97
2022-08-27T14:52:55.356Z,4.07
2022-08-27T14:54:57.035Z,4.45
2022-08-27T14:56:59.002Z,4.95
2022-08-27T14:59:00.553Z,4.07
2022-08-27T15:01:03.997Z,3.40
2022-08-27T15:03:07.797Z,3.58
2022-08-27T15:05:11.790Z,3.92
2022-08-27T15:07:14.385Z,4.53
2022-08-27T15:09:16.047Z,3.78
2022-08-27T15:11:23.589Z,4.90
2022-08-27T15:13:25.131Z,4.55
2022-08-27T15:15:26.994Z,4.28
2022-08-27T15:17:33.423Z,4.30
2022-08-27T15:19:36.720Z,4.30
2022-08-27T15:21:40.464Z,4.45
2022-08-27T15:23:43.211Z,4.65
2022-08-27T15:25:46.071Z,5.35
2022-08-27T15:27:48.108Z,5.10
2022-08-27T15:29:50.245Z,6.38
2022-08-27T15:31:52.050Z,5.10
2022-08-27T15:33:53.776Z,3.78
2022-08-27T15:35:55.559Z,8.65
2022-08-27T15:37:58.385Z,4.85
2022-08-27T15:40:03.302Z,4.07
2022-08-27T15:42:07.214Z,5.65
2022-08-27T15:44:09.224Z,31.88
2022-08-27T15:46:10.870Z,29.55
2022-08-27T15:48:12.632Z,30.27
2022-08-27T15:50:14.500Z,25.27
2022-08-27T15:52:18.890Z,21.85
2022-08-27T15:54:20.573Z,21.35
2022-08-27T15:56:23.535Z,14.68
2022-08-27T15:58:29.038Z,16.23
2022-08-27T16:00:34.340Z,9.45
2022-08-27T16:02:43.853Z,7.40
2022-08-27T16:04:49.075Z,7.50
2022-08-27T16:06:50.973Z,5.88
2022-08-27T16:08:53.227Z,5.70
2022-08-27T16:10:56.089Z,7.80
2022-08-27T16:12:57.945Z,6.05
2022-08-27T16:15:01.031Z,5.22
2022-08-27T16:17:02.967Z,4.50
2022-08-27T16:19:06.607Z,5.25
2022-08-27T16:21:09.904Z,5.25
2022-08-27T16:23:11.437Z,4.80
2022-08-27T16:25:17.820Z,4.90
2022-08-27T16:27:20.540Z,5.25
2022-08-27T16:29:22.037Z,5.05
2022-08-27T16:31:24.075Z,4.50
2022-08-27T16:33:25.714Z,4.88
2022-08-27T16:35:27.333Z,6.25
2022-08-27T16:37:29.115Z,6.28
2022-08-27T16:39:34.633Z,3.85
2022-08-27T16:41:39.224Z,4.55
2022-08-27T16:43:41.762Z,5.00
2022-08-27T16:45:43.756Z,5.82
2022-08-27T16:48:05.841Z,5.68
2022-08-27T16:50:26.653Z,4.63
2022-08-27T16:52:29.514Z,5.70
2022-08-27T16:54:31.565Z,5.32
2022-08-27T16:56:37.084Z,4.55
2022-08-27T16:58:40.115Z,5.18
2022-08-27T17:00:43.494Z,4.10
2022-08-27T17:02:50.168Z,5.32
2022-08-27T17:04:58.495Z,5.68
2022-08-27T17:07:13.886Z,5.18
2022-08-27T17:09:15.482Z,5.13
2022-08-27T17:11:23.605Z,4.78
2022-08-27T17:13:29.269Z,5.60
2022-08-27T17:15:31.063Z,4.55
2022-08-27T17:17:32.768Z,5.65
2022-08-27T17:19:34.829Z,4.32
2022-08-27T17:21:37.397Z,5.05
2022-08-27T17:23:42.015Z,4.95
2022-08-27T17:25:43.794Z,4.53
2022-08-27T17:27:45.392Z,4.50
2022-08-27T17:29:47.057Z,5.07
2022-08-27T17:31:48.744Z,4.88
2022-08-27T17:33:52.613Z,4.22
2022-08-27T17:35:54.373Z,5.03
2022-08-27T17:37:56.009Z,5.22
2022-08-27T17:39:58.601Z,6.65
2022-08-27T17:42:00.637Z,5.15
2022-08-27T17:44:13.259Z,4.55
2022-08-27T17:46:15.858Z,4.70
2022-08-27T17:48:19.253Z,4.40
2022-08-27T17:50:21.216Z,5.70
2022-08-27T17:52:23.037Z,6.80
2022-08-27T17:54:35.984Z,4.97
2022-08-27T17:56:40.135Z,6.38
2022-08-27T17:58:41.967Z,5.45
2022-08-27T18:00:44.932Z,5.35
2022-08-27T18:02:49.172Z,4.97
2022-08-27T18:04:51.449Z,5.00
2022-08-27T18:06:53.174Z,4.72
2022-08-27T18:08:55.098Z,4.85
2022-08-27T18:10:56.742Z,5.57
2022-08-27T18:13:01.401Z,5.95
2022-08-27T18:15:09.736Z,6.70
2022-08-27T18:17:16.026Z,7.00
2022-08-27T18:19:17.711Z,5.78
2022-08-27T18:21:25.120Z,5.38
2022-08-27T18:23:27.560Z,4.68
2022-08-27T18:25:35.382Z,5.00
2022-08-27T18:27:40.166Z,6.80
2022-08-27T18:29:42.190Z,4.68
2022-08-27T18:31:44.184Z,6.80
2022-08-27T18:33:46.779Z,4.70
2022-08-27T18:35:48.708Z,6.22
2022-08-27T18:37:54.460Z,5.15
2022-08-27T18:39:56.228Z,5.68
2022-08-27T18:41:58.003Z,7.03
2022-08-27T18:44:00.674Z,5.03
2022-08-27T18:46:04.257Z,5.22
2022-08-27T18:48:16.170Z,6.55
2022-08-27T18:50:19.027Z,5.45
2022-08-27T18:52:22.500Z,5.15
2022-08-27T18:54:27.230Z,5.07
2022-08-27T18:56:29.152Z,5.80
2022-08-27T18:58:30.799Z,6.32
2022-08-27T19:00:32.764Z,5.25
2022-08-27T19:02:35.178Z,5.30
2022-08-27T19:04:37.385Z,5.28
2022-08-27T19:06:39.557Z,5.30
2022-08-27T19:08:42.207Z,6.30
2022-08-27T19:10:43.919Z,5.47
2022-08-27T19:12:47.560Z,4.97
2022-08-27T19:14:49.077Z,5.60
2022-08-27T19:16:55.816Z,6.15
2022-08-27T19:18:57.590Z,6.03
2022-08-27T19:20:59.669Z,6.57
2022-08-27T19:23:01.616Z,5.70
2022-08-27T19:25:05.004Z,5.75
2022-08-27T19:27:06.643Z,5.75
2022-08-27T19:29:13.764Z,5.82
2022-08-27T19:31:16.922Z,7.43
2022-08-27T19:33:18.907Z,6.88
2022-08-27T19:35:20.762Z,5.40
2022-08-27T19:37:27.110Z,5.07
2022-08-27T19:39:28.706Z,5.40
2022-08-27T19:41:31.326Z,5.60
2022-08-27T19:43:32.929Z,6.15
2022-08-27T19:45:36.019Z,5.70
2022-08-27T19:47:42.329Z,5.18
2022-08-27T19:49:49.599Z,7.65
2022-08-27T19:51:51.764Z,5.38
2022-08-27T19:53:53.414Z,6.15
2022-08-27T19:55:55.238Z,6.00
2022-08-27T19:57:57.223Z,6.53
2022-08-27T19:59:59.294Z,6.63
2022-08-27T20:02:04.681Z,6.70
2022-08-27T20:04:09.051Z,6.22
2022-08-27T20:06:11.031Z,5.85
2022-08-27T20:08:13.030Z,6.97
2022-08-27T20:10:16.811Z,6.68
2022-08-27T20:12:18.377Z,6.05
2022-08-27T20:14:20.809Z,6.70
2022-08-27T20:16:22.556Z,6.43
2022-08-27T20:18:24.310Z,6.60
2022-08-27T20:20:26.453Z,6.38
2022-08-27T20:22:28.080Z,6.22
2022-08-27T20:24:29.829Z,6.82
2022-08-27T20:26:33.054Z,6.80
2022-08-27T20:28:39.427Z,6.75
2022-08-27T20:30:41.493Z,7.13
2022-08-27T20:32:49.735Z,7.00
2022-08-27T20:34:51.606Z,6.63
2022-08-27T20:36:56.708Z,7.22
2022-08-27T20:38:59.147Z,6.60
2022-08-27T20:41:03.188Z,7.38
2022-08-27T20:43:04.794Z,8.30
2022-08-27T20:45:11.761Z,7.07
2022-08-27T20:47:18.375Z,8.57
2022-08-27T20:49:21.595Z,7.28
2022-08-27T20:51:25.189Z,6.55
2022-08-27T20:53:26.916Z,6.13
2022-08-27T20:55:28.944Z,6.45
2022-08-27T20:57:31.225Z,6.97
2022-08-27T20:59:54.611Z,6.50
2022-08-27T21:01:58.157Z,7.13
2022-08-27T21:04:03.321Z,7.18
2022-08-27T21:06:08.584Z,7.53
2022-08-27T21:08:11.947Z,6.53
2022-08-27T21:10:13.598Z,6.38
2022-08-27T21:12:15.256Z,8.32
2022-08-27T21:14:24.662Z,7.68
2022-08-27T21:16:35.091Z,7.05
2022-08-27T21:18:38.917Z,7.82
2022-08-27T21:20:40.799Z,6.72
2022-08-27T21:22:43.623Z,7.80
2022-08-27T21:24:47.444Z,7.40
2022-08-27T21:26:49.457Z,8.07
2022-08-27T21:28:55.620Z,6.80
2022-08-27T21:30:57.766Z,7.03
2022-08-27T21:32:59.798Z,7.25
2022-08-27T21:35:01.859Z,7.70
2022-08-27T21:37:04.447Z,6.75
2022-08-27T21:39:06.304Z,8.50
2022-08-27T21:41:11.240Z,7.32
2022-08-27T21:43:12.907Z,8.13
2022-08-27T21:45:14.889Z,7.32
2022-08-27T21:47:21.263Z,6.35
2022-08-27T21:49:22.952Z,6.75
2022-08-27T21:51:28.752Z,7.50
2022-08-27T21:53:31.813Z,7.70
2022-08-27T21:55:33.777Z,7.32
2022-08-27T21:57:35.769Z,8.40
2022-08-27T21:59:48.144Z,12.57
2022-08-27T22:01:55.802Z,48.17
2022-08-27T22:04:02.275Z,45.80
2022-08-27T22:06:14.177Z,28.17
2022-08-27T22:08:18.531Z,16.95
2022-08-27T22:10:20.366Z,14.57
2022-08-27T22:12:24.329Z,12.82
2022-08-27T22:14:26.039Z,10.15
2022-08-27T22:16:30.029Z,8.73
2022-08-27T22:18:31.922Z,8.20
2022-08-27T22:20:34.446Z,10.55
2022-08-27T22:22:35.985Z,9.18
2022-08-27T22:24:43.378Z,7.22
2022-08-27T22:26:45.102Z,8.98
2022-08-27T22:28:47.085Z,7.68
2022-08-27T22:30:51.661Z,8.27
2022-08-27T22:32:53.478Z,7.45
2022-08-27T22:34:57.355Z,9.30
2022-08-27T22:36:58.877Z,7.95
2022-08-27T22:39:06.971Z,8.00
2022-08-27T22:41:09.503Z,7.75
2022-08-27T22:43:12.558Z,8.98
2022-08-27T22:45:16.978Z,9.30
2022-08-27T22:47:18.935Z,8.23
2022-08-27T22:49:20.703Z,7.60
2022-08-27T22:51:22.633Z,8.73
2022-08-27T22:53:24.387Z,9.50
2022-08-27T22:55:26.161Z,11.13
2022-08-27T22:57:27.794Z,8.35
2022-08-27T22:59:38.715Z,7.50
2022-08-27T23:01:40.935Z,7.70
2022-08-27T23:03:47.055Z,8.07
2022-08-27T23:05:49.068Z,10.20
2022-08-27T23:07:52.131Z,9.43
2022-08-27T23:09:53.973Z,8.23
2022-08-27T23:11:58.410Z,7.55
2022-08-27T23:14:03.458Z,7.95
2022-08-27T23:16:05.932Z,7.85
2022-08-27T23:18:07.633Z,7.88
2022-08-27T23:20:10.504Z,9.05
2022-08-27T23:22:12.291Z,7.72
2022-08-27T23:24:15.511Z,8.27
2022-08-27T23:26:35.790Z,8.23
2022-08-27T23:28:40.811Z,7.28
2022-08-27T23:30:44.245Z,8.48
2022-08-27T23:32:51.168Z,7.63
2022-08-27T23:34:56.095Z,6.97
2022-08-27T23:36:58.092Z,10.27
2022-08-27T23:39:00.759Z,8.57
2022-08-27T23:41:02.560Z,6.15
2022-08-27T23:43:04.310Z,8.13
2022-08-27T23:45:07.216Z,7.63
2022-08-27T23:47:10.141Z,7.03
2022-08-27T23:49:12.607Z,9.90
2022-08-27T23:51:14.427Z,6.43
2022-08-27T23:53:15.932Z,6.30
2022-08-27T23:55:17.834Z,6.53
2022-08-27T23:57:19.621Z,7.93
2022-08-27T23:59:21.306Z,6.63
